PADK/ADK METAR and TAF weather

Enter ICAO airport designator
Station Type Date Time Source
PADK METAR 2019/10/15 20:56 UTC NOAA

PADK 152056Z AUTO 22019G34KT 10SM -RA OVC024 08/05 A2959 RMK AO2 PK WND 23038/2007 RAE17B45 SLP021 P0001 60008 T00830050 58040


Station Type Date Time Source
PADK Decoded METAR 2019/10/15 20:56 UTC NOAA

Adak Island, Adak Airport, AK, United States (PADK) 51-52-40N 176-38-45W 4M
Oct 15, 2019 - 04:56 PM EDT / 2019.10.15 2056 UTC
Wind: from the SW (220 degrees) at 22 MPH (19 KT) gusting to 39 MPH (34 KT):0
Visibility: 10 mile(s):0
Sky conditions: overcast
Weather: light rain
Precipitation last hour: 0.01 inches
Temperature: 46.9 F (8.3 C)
Dew Point: 41.0 F (5.0 C)
Relative Humidity: 79%
Pressure (altimeter): 29.59 in. Hg (1002 hPa)
Pressure tendency: 0.12 inches (4.0 hPa) lower than three hours ago
ob: PADK 152056Z AUTO 22019G34KT 10SM -RA OVC024 08/05 A2959 RMK AO2 PK WND 23038/2007 RAE17B45 SLP021 P0001 60008 T00830050 58040
cycle: 21

Station Type Date Time Source
PADK TAF 2007/04/07 12:54 UTC NOAA

TAF PADK 070404 33010G15KT 9999 FEW025 BKN030 OVC050 QNH2900INS T03/00Z TM01/18Z COR 1205 LAST NO
AMDS AFT 0712;

Example: see airport list